createdAt,value
2022-11-28T00:00:46.552Z,14.95
2022-11-28T00:05:48.699Z,17.33
2022-11-28T00:10:50.496Z,15.75
2022-11-28T00:16:03.703Z,16.35
2022-11-28T00:21:11.301Z,17.48
2022-11-28T00:26:19.732Z,18.00
2022-11-28T00:31:27.707Z,18.13
2022-11-28T00:36:30.304Z,15.32
2022-11-28T00:41:33.994Z,16.92
2022-11-28T00:46:35.766Z,18.75
2022-11-28T00:51:38.204Z,19.48
2022-11-28T00:56:40.909Z,16.95
2022-11-28T01:01:43.956Z,19.73
2022-11-28T01:06:48.833Z,20.65
2022-11-28T01:11:53.506Z,15.85
2022-11-28T01:16:55.170Z,21.70
2022-11-28T01:21:56.844Z,15.00
2022-11-28T01:26:58.583Z,18.48
2022-11-28T01:32:00.307Z,18.05
2022-11-28T01:37:02.024Z,14.35
2022-11-28T01:42:04.119Z,18.80
2022-11-28T01:47:05.824Z,16.40
2022-11-28T01:52:15.313Z,14.65
2022-11-28T01:57:20.774Z,16.15
2022-11-28T02:02:33.686Z,15.88
2022-11-28T02:07:37.048Z,14.20
2022-11-28T02:13:06.428Z,14.73
2022-11-28T02:18:24.791Z,13.15
2022-11-28T02:23:45.781Z,13.75
2022-11-28T02:29:06.168Z,13.00
2022-11-28T02:34:20.428Z,11.55
2022-11-28T02:39:30.098Z,11.90
2022-11-28T02:44:49.942Z,13.38
2022-11-28T02:50:09.424Z,15.15
2022-11-28T02:55:12.516Z,16.08
2022-11-28T03:00:50.665Z,14.77
2022-11-28T03:06:17.645Z,16.05
2022-11-28T03:11:45.193Z,12.80
2022-11-28T03:16:57.512Z,14.07
2022-11-28T03:22:05.660Z,14.20
2022-11-28T03:27:16.329Z,15.35
2022-11-28T03:32:26.098Z,14.85
2022-11-28T03:37:32.593Z,12.30
2022-11-28T03:42:40.461Z,12.73
2022-11-28T03:47:47.117Z,13.50
2022-11-28T03:52:59.589Z,13.88
2022-11-28T03:58:22.762Z,12.00
2022-11-28T04:03:44.853Z,11.90
2022-11-28T04:08:58.354Z,13.80
2022-11-28T04:14:21.826Z,12.27
2022-11-28T04:19:27.637Z,10.73
2022-11-28T04:24:37.293Z,9.90
2022-11-28T04:29:44.378Z,12.20
2022-11-28T04:34:50.598Z,10.35
2022-11-28T04:39:54.608Z,10.68
2022-11-28T04:45:06.179Z,10.38
2022-11-28T04:50:08.416Z,11.43
2022-11-28T04:55:28.884Z,11.88
2022-11-28T05:00:35.139Z,10.82
2022-11-28T05:05:49.583Z,10.82
2022-11-28T05:10:51.309Z,9.82
2022-11-28T05:15:53.003Z,9.77
2022-11-28T05:20:54.940Z,11.00
2022-11-28T05:25:56.720Z,15.27
2022-11-28T05:30:59.393Z,12.95
2022-11-28T05:36:13.128Z,11.77
2022-11-28T05:41:29.537Z,11.48
2022-11-28T05:46:31.241Z,10.45
2022-11-28T05:51:33.054Z,10.68
2022-11-28T05:56:39.430Z,12.45
2022-11-28T06:01:44.157Z,12.50
2022-11-28T06:06:45.885Z,14.02
2022-11-28T06:11:47.547Z,9.93
2022-11-28T06:16:49.340Z,9.98
2022-11-28T06:21:51.106Z,11.95
2022-11-28T06:26:52.817Z,10.27
2022-11-28T06:31:56.126Z,12.35
2022-11-28T06:36:58.262Z,9.82
2022-11-28T06:41:59.931Z,12.68
2022-11-28T06:47:01.585Z,12.93
2022-11-28T06:52:03.773Z,11.20
2022-11-28T06:57:05.432Z,14.60
2022-11-28T07:02:08.090Z,8.13
2022-11-28T07:07:13.708Z,12.48
2022-11-28T07:12:18.225Z,13.35
2022-11-28T07:17:20.011Z,11.57
2022-11-28T07:22:22.237Z,10.43
2022-11-28T07:27:23.873Z,11.10
2022-11-28T07:32:25.773Z,13.95
2022-11-28T07:37:27.505Z,10.27
2022-11-28T07:42:29.315Z,12.43
2022-11-28T07:47:31.346Z,12.13
2022-11-28T07:52:33.043Z,11.18
2022-11-28T07:57:34.734Z,11.05
2022-11-28T08:02:38.765Z,13.10
2022-11-28T08:07:40.545Z,13.48
2022-11-28T08:12:42.259Z,16.50
2022-11-28T08:17:43.983Z,13.90
2022-11-28T08:22:45.690Z,14.07
2022-11-28T08:27:47.375Z,14.65
2022-11-28T08:32:49.094Z,13.88
2022-11-28T08:37:51.054Z,12.05
2022-11-28T08:42:52.726Z,19.17
2022-11-28T08:47:54.438Z,15.68
2022-11-28T08:53:01.623Z,16.10
2022-11-28T08:58:08.966Z,14.20
2022-11-28T09:03:15.679Z,16.55
2022-11-28T09:08:19.985Z,14.77
2022-11-28T09:13:21.939Z,14.68
2022-11-28T09:18:23.671Z,17.25
2022-11-28T09:23:25.449Z,16.15
2022-11-28T09:28:28.846Z,16.92
2022-11-28T09:33:31.066Z,20.42
2022-11-28T09:38:32.780Z,15.10
2022-11-28T09:43:42.647Z,14.98
2022-11-28T09:48:54.412Z,16.77
2022-11-28T09:54:13.595Z,16.27
2022-11-28T09:59:25.302Z,14.93
2022-11-28T10:04:47.168Z,15.10
2022-11-28T10:09:48.801Z,15.13
2022-11-28T10:14:56.712Z,21.08
2022-11-28T10:20:10.796Z,17.13
2022-11-28T10:25:29.185Z,16.88
2022-11-28T10:30:37.519Z,14.88
2022-11-28T10:35:45.027Z,17.30
2022-11-28T10:40:50.171Z,19.65
2022-11-28T10:46:03.274Z,15.63
2022-11-28T10:51:42.834Z,18.80
2022-11-28T10:57:09.017Z,15.65
2022-11-28T11:02:46.593Z,16.38
2022-11-28T11:08:02.379Z,16.15
2022-11-28T11:13:15.915Z,19.58
2022-11-28T11:18:31.421Z,18.35
2022-11-28T11:23:38.052Z,15.65
2022-11-28T11:28:46.902Z,19.48
2022-11-28T11:33:53.037Z,19.05
2022-11-28T11:39:12.831Z,18.45
2022-11-28T11:44:14.537Z,18.05
2022-11-28T11:49:28.181Z,15.40
2022-11-28T11:54:30.163Z,16.33
2022-11-28T11:59:39.135Z,15.40
2022-11-28T12:04:49.019Z,17.83
2022-11-28T12:10:00.523Z,17.85
2022-11-28T12:15:16.134Z,18.48
2022-11-28T12:20:32.712Z,15.90
2022-11-28T12:25:45.072Z,17.23
2022-11-28T12:31:39.335Z,16.10
2022-11-28T12:37:10.419Z,14.65
2022-11-28T12:42:37.690Z,16.38
2022-11-28T12:48:08.239Z,16.33
2022-11-28T12:53:37.138Z,12.45
2022-11-28T12:59:04.931Z,13.13
2022-11-28T13:04:15.500Z,16.38
2022-11-28T13:09:48.713Z,15.20
2022-11-28T13:14:54.928Z,14.02
2022-11-28T13:20:25.326Z,34.15
2022-11-28T13:26:04.647Z,19.70
2022-11-28T13:31:19.007Z,15.23
2022-11-28T13:43:02.946Z,13.25
2022-11-28T13:49:13.069Z,14.32
2022-11-28T13:54:18.952Z,14.35
2022-11-28T13:59:22.854Z,16.58
2022-11-28T14:04:26.121Z,13.02
2022-11-28T14:09:52.625Z,24.60
2022-11-28T14:14:54.246Z,29.90
2022-11-28T14:20:20.536Z,12.40
2022-11-28T14:25:34.463Z,12.45
2022-11-28T14:30:41.211Z,11.27
2022-11-28T14:35:54.903Z,12.43
2022-11-28T14:40:56.783Z,17.35
2022-11-28T14:46:27.888Z,25.83
2022-11-28T14:51:48.068Z,29.30
2022-11-28T14:56:52.969Z,12.55
2022-11-28T15:02:03.250Z,15.35
2022-11-28T15:07:17.277Z,14.55
2022-11-28T15:12:37.235Z,20.52
2022-11-28T15:17:41.518Z,15.80
2022-11-28T15:22:46.536Z,14.95
2022-11-28T15:27:48.606Z,13.13
2022-11-28T15:32:50.964Z,13.07
2022-11-28T15:37:57.996Z,14.48
2022-11-28T15:43:01.438Z,14.90
2022-11-28T15:48:04.711Z,12.70
2022-11-28T15:53:18.507Z,13.48
2022-11-28T15:58:23.496Z,12.10
2022-11-28T16:03:29.320Z,14.32
2022-11-28T16:08:36.187Z,14.30
2022-11-28T16:13:39.715Z,14.82
2022-11-28T16:18:48.169Z,17.08
2022-11-28T16:23:49.924Z,15.57
2022-11-28T16:29:24.406Z,16.33
2022-11-28T16:34:53.586Z,15.13
2022-11-28T16:40:07.269Z,14.60
2022-11-28T16:45:15.420Z,14.82
2022-11-28T16:50:23.285Z,14.90
2022-11-28T16:55:31.664Z,17.65
2022-11-28T17:00:38.261Z,17.83
2022-11-28T17:05:40.079Z,14.20
2022-11-28T17:10:41.757Z,14.93
2022-11-28T17:15:43.462Z,17.45
2022-11-28T17:20:45.341Z,17.13
2022-11-28T17:25:47.067Z,16.60
2022-11-28T17:30:48.753Z,13.85
2022-11-28T17:35:52.374Z,15.32
2022-11-28T17:40:54.107Z,24.35
2022-11-28T17:45:56.577Z,16.95
2022-11-28T17:50:59.337Z,17.92
2022-11-28T17:56:01.024Z,16.75
2022-11-28T18:01:03.231Z,15.10
2022-11-28T18:06:05.352Z,15.98
2022-11-28T18:11:09.988Z,16.90
2022-11-28T18:16:13.571Z,15.00
2022-11-28T18:21:16.513Z,16.80
2022-11-28T18:26:22.829Z,17.50
2022-11-28T18:31:26.674Z,18.45
2022-11-28T18:36:30.173Z,21.48
2022-11-28T18:41:32.480Z,19.33
2022-11-28T18:46:34.968Z,19.13
2022-11-28T18:51:36.865Z,17.60
2022-11-28T18:56:38.589Z,19.15
2022-11-28T19:01:40.324Z,17.42
2022-11-28T19:06:43.781Z,16.80
2022-11-28T19:11:45.463Z,18.17
2022-11-28T19:16:49.273Z,20.23
2022-11-28T19:21:51.186Z,22.10
2022-11-28T19:26:52.889Z,22.08
2022-11-28T19:31:54.656Z,23.25
2022-11-28T19:36:56.404Z,20.33
2022-11-28T19:41:58.201Z,22.70
2022-11-28T19:47:00.885Z,18.48
2022-11-28T19:52:02.722Z,22.40
2022-11-28T19:57:04.825Z,19.60
2022-11-28T20:02:07.568Z,17.08
2022-11-28T20:07:09.340Z,20.92
2022-11-28T20:12:11.158Z,22.80
2022-11-28T20:17:12.868Z,20.30
2022-11-28T20:22:14.538Z,18.38
2022-11-28T20:27:16.255Z,17.70
2022-11-28T20:32:18.108Z,21.50
2022-11-28T20:37:20.155Z,21.23
2022-11-28T20:42:21.905Z,19.77
2022-11-28T20:47:23.749Z,20.30
2022-11-28T20:52:25.459Z,20.58
2022-11-28T20:57:27.217Z,20.52
2022-11-28T21:02:29.037Z,18.83
2022-11-28T21:07:32.664Z,21.23
2022-11-28T21:12:34.456Z,21.15
2022-11-28T21:17:36.225Z,21.02
2022-11-28T21:22:37.923Z,20.77
2022-11-28T21:27:39.677Z,25.40
2022-11-28T21:32:41.484Z,21.52
2022-11-28T21:37:43.260Z,20.05
2022-11-28T21:42:45.347Z,22.05
2022-11-28T21:47:47.170Z,21.85
2022-11-28T21:52:49.096Z,21.13
2022-11-28T21:57:51.220Z,23.52
2022-11-28T22:02:54.841Z,25.25
2022-11-28T22:07:58.767Z,24.52
2022-11-28T22:13:00.582Z,21.75
2022-11-28T22:18:02.392Z,24.70
2022-11-28T22:23:04.189Z,23.00
2022-11-28T22:28:05.904Z,22.60
2022-11-28T22:33:07.725Z,24.30
2022-11-28T22:38:09.524Z,22.73
2022-11-28T22:43:11.312Z,22.65
2022-11-28T22:48:13.083Z,24.10
2022-11-28T22:53:14.868Z,25.40
2022-11-28T22:58:16.913Z,23.33
2022-11-28T23:03:18.745Z,23.38
2022-11-28T23:08:20.624Z,21.05
2022-11-28T23:13:23.399Z,22.30
2022-11-28T23:18:25.284Z,26.00
2022-11-28T23:23:26.978Z,22.48
2022-11-28T23:28:28.969Z,23.33
2022-11-28T23:33:30.691Z,22.88
2022-11-28T23:38:32.418Z,21.42
2022-11-28T23:43:34.258Z,26.73
2022-11-28T23:48:36.620Z,23.42
2022-11-28T23:53:38.677Z,21.80
2022-11-28T23:58:41.633Z,21.92
